sensor_id;sensor_type;location;lat;lon;timestamp;temperature;humidity
44517;DHT22;30223;17.182;-96.766;2023-09-19T00:00:16;27.20;61.30
44517;DHT22;30223;17.182;-96.766;2023-09-19T00:02:45;27.20;61.30
44517;DHT22;30223;17.182;-96.766;2023-09-19T00:05:12;27.20;61.40
44517;DHT22;30223;17.182;-96.766;2023-09-19T00:07:39;27.20;61.40
44517;DHT22;30223;17.182;-96.766;2023-09-19T00:10:06;27.20;61.40
44517;DHT22;30223;17.182;-96.766;2023-09-19T00:12:35;27.20;61.60
44517;DHT22;30223;17.182;-96.766;2023-09-19T00:15:01;27.10;61.50
44517;DHT22;30223;17.182;-96.766;2023-09-19T00:17:30;27.10;61.60
44517;DHT22;30223;17.182;-96.766;2023-09-19T00:19:57;27.10;61.60
44517;DHT22;30223;17.182;-96.766;2023-09-19T00:22:24;27.10;61.60
44517;DHT22;30223;17.182;-96.766;2023-09-19T00:24:52;27.10;61.70
44517;DHT22;30223;17.182;-96.766;2023-09-19T00:27:19;27.10;61.70
44517;DHT22;30223;17.182;-96.766;2023-09-19T00:29:45;27.10;61.80
44517;DHT22;30223;17.182;-96.766;2023-09-19T00:32:11;27.00;61.70
44517;DHT22;30223;17.182;-96.766;2023-09-19T00:34:37;27.00;61.80
44517;DHT22;30223;17.182;-96.766;2023-09-19T00:37:03;27.00;61.80
44517;DHT22;30223;17.182;-96.766;2023-09-19T00:39:30;27.00;61.80
44517;DHT22;30223;17.182;-96.766;2023-09-19T00:41:57;27.00;61.80
44517;DHT22;30223;17.182;-96.766;2023-09-19T00:44:23;27.00;61.80
44517;DHT22;30223;17.182;-96.766;2023-09-19T00:46:49;27.00;61.80
44517;DHT22;30223;17.182;-96.766;2023-09-19T00:49:16;27.00;61.80
44517;DHT22;30223;17.182;-96.766;2023-09-19T00:51:42;26.90;61.80
44517;DHT22;30223;17.182;-96.766;2023-09-19T00:54:12;27.00;62.10
44517;DHT22;30223;17.182;-96.766;2023-09-19T00:56:44;26.90;62.10
44517;DHT22;30223;17.182;-96.766;2023-09-19T00:59:11;26.90;62.10
44517;DHT22;30223;17.182;-96.766;2023-09-19T01:01:37;26.90;62.00
44517;DHT22;30223;17.182;-96.766;2023-09-19T01:04:05;26.90;62.00
44517;DHT22;30223;17.182;-96.766;2023-09-19T01:06:31;26.90;62.00
44517;DHT22;30223;17.182;-96.766;2023-09-19T01:08:58;26.90;62.00
44517;DHT22;30223;17.182;-96.766;2023-09-19T01:11:34;26.90;62.00
44517;DHT22;30223;17.182;-96.766;2023-09-19T01:16:41;26.90;62.20
44517;DHT22;30223;17.182;-96.766;2023-09-19T01:29:38;26.80;62.20
44517;DHT22;30223;17.182;-96.766;2023-09-19T01:32:05;26.80;62.20
44517;DHT22;30223;17.182;-96.766;2023-09-19T01:37:11;26.80;62.20
44517;DHT22;30223;17.182;-96.766;2023-09-19T01:39:38;26.80;62.90
44517;DHT22;30223;17.182;-96.766;2023-09-19T01:42:06;26.80;62.20
44517;DHT22;30223;17.182;-96.766;2023-09-19T01:44:56;26.80;62.20
44517;DHT22;30223;17.182;-96.766;2023-09-19T01:47:34;26.80;62.20
44517;DHT22;30223;17.182;-96.766;2023-09-19T01:50:07;26.80;62.30
44517;DHT22;30223;17.182;-96.766;2023-09-19T01:52:36;26.80;62.20
44517;DHT22;30223;17.182;-96.766;2023-09-19T01:55:09;26.70;62.20
44517;DHT22;30223;17.182;-96.766;2023-09-19T01:57:49;26.70;62.20
44517;DHT22;30223;17.182;-96.766;2023-09-19T02:00:18;26.70;62.20
44517;DHT22;30223;17.182;-96.766;2023-09-19T02:02:46;26.70;62.20
44517;DHT22;30223;17.182;-96.766;2023-09-19T02:05:24;26.70;62.20
44517;DHT22;30223;17.182;-96.766;2023-09-19T02:07:51;26.70;62.20
44517;DHT22;30223;17.182;-96.766;2023-09-19T02:10:18;26.60;62.20
44517;DHT22;30223;17.182;-96.766;2023-09-19T02:12:45;26.70;62.30
44517;DHT22;30223;17.182;-96.766;2023-09-19T02:15:11;26.70;62.30
44517;DHT22;30223;17.182;-96.766;2023-09-19T02:17:37;26.60;62.20
44517;DHT22;30223;17.182;-96.766;2023-09-19T02:20:04;26.60;62.20
44517;DHT22;30223;17.182;-96.766;2023-09-19T02:22:41;26.60;62.20
44517;DHT22;30223;17.182;-96.766;2023-09-19T02:25:10;26.70;62.90
44517;DHT22;30223;17.182;-96.766;2023-09-19T02:27:41;26.70;63.00
44517;DHT22;30223;17.182;-96.766;2023-09-19T02:30:10;26.70;62.70
44517;DHT22;30223;17.182;-96.766;2023-09-19T02:32:39;26.80;63.00
44517;DHT22;30223;17.182;-96.766;2023-09-19T02:35:07;26.70;62.60
44517;DHT22;30223;17.182;-96.766;2023-09-19T02:37:37;26.80;62.10
44517;DHT22;30223;17.182;-96.766;2023-09-19T02:40:08;26.80;61.70
44517;DHT22;30223;17.182;-96.766;2023-09-19T02:42:48;26.80;61.30
44517;DHT22;30223;17.182;-96.766;2023-09-19T02:45:20;26.80;61.10
44517;DHT22;30223;17.182;-96.766;2023-09-19T02:47:50;26.80;60.50
44517;DHT22;30223;17.182;-96.766;2023-09-19T02:50:28;26.90;61.00
44517;DHT22;30223;17.182;-96.766;2023-09-19T02:52:56;26.90;60.70
44517;DHT22;30223;17.182;-96.766;2023-09-19T02:55:26;26.90;60.40
44517;DHT22;30223;17.182;-96.766;2023-09-19T02:58:01;26.90;60.00
44517;DHT22;30223;17.182;-96.766;2023-09-19T03:00:31;26.90;60.20
44517;DHT22;30223;17.182;-96.766;2023-09-19T03:02:59;26.90;59.20
44517;DHT22;30223;17.182;-96.766;2023-09-19T03:05:25;26.90;58.80
44517;DHT22;30223;17.182;-96.766;2023-09-19T03:07:52;26.90;58.50
44517;DHT22;30223;17.182;-96.766;2023-09-19T03:10:18;26.90;58.40
44517;DHT22;30223;17.182;-96.766;2023-09-19T03:12:45;26.90;58.10
44517;DHT22;30223;17.182;-96.766;2023-09-19T03:15:12;26.90;58.50
44517;DHT22;30223;17.182;-96.766;2023-09-19T03:17:49;26.90;57.80
44517;DHT22;30223;17.182;-96.766;2023-09-19T03:20:18;26.90;57.70
44517;DHT22;30223;17.182;-96.766;2023-09-19T03:22:46;26.90;57.60
44517;DHT22;30223;17.182;-96.766;2023-09-19T03:25:13;26.90;57.30
44517;DHT22;30223;17.182;-96.766;2023-09-19T03:27:40;26.90;57.20
44517;DHT22;30223;17.182;-96.766;2023-09-19T03:30:06;26.90;57.10
44517;DHT22;30223;17.182;-96.766;2023-09-19T03:32:45;26.90;57.30
44517;DHT22;30223;17.182;-96.766;2023-09-19T03:35:12;26.90;57.10
44517;DHT22;30223;17.182;-96.766;2023-09-19T03:37:40;26.90;56.90
44517;DHT22;30223;17.182;-96.766;2023-09-19T03:40:07;26.90;57.10
44517;DHT22;30223;17.182;-96.766;2023-09-19T03:42:44;26.90;56.90
44517;DHT22;30223;17.182;-96.766;2023-09-19T03:45:10;26.90;56.80
44517;DHT22;30223;17.182;-96.766;2023-09-19T03:47:38;26.90;56.70
44517;DHT22;30223;17.182;-96.766;2023-09-19T03:50:05;26.90;56.80
44517;DHT22;30223;17.182;-96.766;2023-09-19T03:52:32;26.90;56.50
44517;DHT22;30223;17.182;-96.766;2023-09-19T03:54:59;26.90;56.50
44517;DHT22;30223;17.182;-96.766;2023-09-19T03:57:25;26.90;56.40
44517;DHT22;30223;17.182;-96.766;2023-09-19T03:59:51;26.90;56.40
44517;DHT22;30223;17.182;-96.766;2023-09-19T04:02:19;26.90;56.30
44517;DHT22;30223;17.182;-96.766;2023-09-19T04:04:48;26.90;56.20
44517;DHT22;30223;17.182;-96.766;2023-09-19T04:07:15;26.90;56.20
44517;DHT22;30223;17.182;-96.766;2023-09-19T04:09:41;26.90;56.10
44517;DHT22;30223;17.182;-96.766;2023-09-19T04:12:07;26.80;55.90
44517;DHT22;30223;17.182;-96.766;2023-09-19T04:14:36;26.80;56.00
44517;DHT22;30223;17.182;-96.766;2023-09-19T04:17:04;26.80;55.90
44517;DHT22;30223;17.182;-96.766;2023-09-19T04:19:31;26.80;55.60
44517;DHT22;30223;17.182;-96.766;2023-09-19T04:21:57;26.70;55.10
44517;DHT22;30223;17.182;-96.766;2023-09-19T04:24:23;26.70;55.30
44517;DHT22;30223;17.182;-96.766;2023-09-19T04:26:49;26.60;55.30
44517;DHT22;30223;17.182;-96.766;2023-09-19T04:29:15;26.60;55.40
44517;DHT22;30223;17.182;-96.766;2023-09-19T04:31:44;26.50;55.40
44517;DHT22;30223;17.182;-96.766;2023-09-19T04:34:12;26.50;55.30
44517;DHT22;30223;17.182;-96.766;2023-09-19T04:36:41;26.40;54.80
44517;DHT22;30223;17.182;-96.766;2023-09-19T04:39:07;26.30;55.50
44517;DHT22;30223;17.182;-96.766;2023-09-19T04:41:36;26.30;55.50
44517;DHT22;30223;17.182;-96.766;2023-09-19T04:44:07;26.20;55.60
44517;DHT22;30223;17.182;-96.766;2023-09-19T04:46:34;26.20;55.80
44517;DHT22;30223;17.182;-96.766;2023-09-19T04:49:00;26.20;55.80
44517;DHT22;30223;17.182;-96.766;2023-09-19T04:51:26;26.20;55.80
44517;DHT22;30223;17.182;-96.766;2023-09-19T04:53:55;26.10;55.80
44517;DHT22;30223;17.182;-96.766;2023-09-19T04:56:21;26.00;55.80
44517;DHT22;30223;17.182;-96.766;2023-09-19T04:58:47;26.00;55.80
44517;DHT22;30223;17.182;-96.766;2023-09-19T05:01:13;26.00;55.90
44517;DHT22;30223;17.182;-96.766;2023-09-19T05:03:40;26.00;55.90
44517;DHT22;30223;17.182;-96.766;2023-09-19T05:06:07;25.90;55.60
44517;DHT22;30223;17.182;-96.766;2023-09-19T05:08:34;25.80;55.80
44517;DHT22;30223;17.182;-96.766;2023-09-19T05:11:01;25.80;56.00
44517;DHT22;30223;17.182;-96.766;2023-09-19T05:13:27;25.80;56.00
44517;DHT22;30223;17.182;-96.766;2023-09-19T05:15:53;25.80;56.00
44517;DHT22;30223;17.182;-96.766;2023-09-19T05:18:20;25.70;55.80
44517;DHT22;30223;17.182;-96.766;2023-09-19T05:20:47;25.70;56.10
44517;DHT22;30223;17.182;-96.766;2023-09-19T05:23:15;25.70;56.30
44517;DHT22;30223;17.182;-96.766;2023-09-19T05:25:42;25.70;56.30
44517;DHT22;30223;17.182;-96.766;2023-09-19T05:28:09;25.60;56.30
44517;DHT22;30223;17.182;-96.766;2023-09-19T05:30:37;25.60;56.20
44517;DHT22;30223;17.182;-96.766;2023-09-19T05:33:06;25.60;56.20
44517;DHT22;30223;17.182;-96.766;2023-09-19T05:35:33;25.50;56.20
44517;DHT22;30223;17.182;-96.766;2023-09-19T05:38:02;25.50;56.10
44517;DHT22;30223;17.182;-96.766;2023-09-19T05:40:29;25.50;56.30
44517;DHT22;30223;17.182;-96.766;2023-09-19T05:42:55;25.50;56.30
44517;DHT22;30223;17.182;-96.766;2023-09-19T05:45:22;25.50;56.40
44517;DHT22;30223;17.182;-96.766;2023-09-19T05:47:48;25.50;56.50
44517;DHT22;30223;17.182;-96.766;2023-09-19T05:50:15;25.40;56.20
44517;DHT22;30223;17.182;-96.766;2023-09-19T05:52:42;25.40;56.30
44517;DHT22;30223;17.182;-96.766;2023-09-19T05:55:11;25.40;56.30
44517;DHT22;30223;17.182;-96.766;2023-09-19T05:57:37;25.30;56.00
44517;DHT22;30223;17.182;-96.766;2023-09-19T06:00:09;25.30;56.50
44517;DHT22;30223;17.182;-96.766;2023-09-19T06:02:37;25.30;56.00
44517;DHT22;30223;17.182;-96.766;2023-09-19T06:05:04;25.30;56.40
44517;DHT22;30223;17.182;-96.766;2023-09-19T06:07:34;25.30;56.60
44517;DHT22;30223;17.182;-96.766;2023-09-19T06:10:06;25.30;56.50
44517;DHT22;30223;17.182;-96.766;2023-09-19T06:12:39;25.30;56.40
44517;DHT22;30223;17.182;-96.766;2023-09-19T06:15:05;25.20;56.20
44517;DHT22;30223;17.182;-96.766;2023-09-19T06:17:34;25.20;56.10
44517;DHT22;30223;17.182;-96.766;2023-09-19T06:20:21;25.20;55.60
44517;DHT22;30223;17.182;-96.766;2023-09-19T06:22:48;25.10;55.40
44517;DHT22;30223;17.182;-96.766;2023-09-19T06:25:15;25.10;55.30
44517;DHT22;30223;17.182;-96.766;2023-09-19T06:27:45;25.10;55.20
44517;DHT22;30223;17.182;-96.766;2023-09-19T06:30:11;25.10;55.80
44517;DHT22;30223;17.182;-96.766;2023-09-19T06:32:41;25.10;55.30
44517;DHT22;30223;17.182;-96.766;2023-09-19T06:35:11;25.20;55.00
44517;DHT22;30223;17.182;-96.766;2023-09-19T06:37:37;25.20;55.00
44517;DHT22;30223;17.182;-96.766;2023-09-19T06:42:34;25.10;55.40
44517;DHT22;30223;17.182;-96.766;2023-09-19T06:45:03;25.10;55.40
44517;DHT22;30223;17.182;-96.766;2023-09-19T06:47:30;25.00;56.00
44517;DHT22;30223;17.182;-96.766;2023-09-19T06:49:56;25.10;56.20
44517;DHT22;30223;17.182;-96.766;2023-09-19T06:52:22;25.00;56.80
44517;DHT22;30223;17.182;-96.766;2023-09-19T06:54:48;25.00;56.30
44517;DHT22;30223;17.182;-96.766;2023-09-19T06:57:16;25.00;56.30
44517;DHT22;30223;17.182;-96.766;2023-09-19T06:59:42;25.00;56.40
44517;DHT22;30223;17.182;-96.766;2023-09-19T07:02:08;25.00;56.40
44517;DHT22;30223;17.182;-96.766;2023-09-19T07:04:34;25.00;56.40
44517;DHT22;30223;17.182;-96.766;2023-09-19T07:07:00;25.00;56.50
44517;DHT22;30223;17.182;-96.766;2023-09-19T07:09:26;25.00;56.50
44517;DHT22;30223;17.182;-96.766;2023-09-19T07:11:54;25.00;56.70
44517;DHT22;30223;17.182;-96.766;2023-09-19T07:14:20;25.00;56.70
44517;DHT22;30223;17.182;-96.766;2023-09-19T07:16:46;25.00;56.90
44517;DHT22;30223;17.182;-96.766;2023-09-19T07:19:13;25.00;56.90
44517;DHT22;30223;17.182;-96.766;2023-09-19T07:21:40;25.00;57.00
44517;DHT22;30223;17.182;-96.766;2023-09-19T07:24:07;24.90;57.00
44517;DHT22;30223;17.182;-96.766;2023-09-19T07:26:34;25.00;57.10
44517;DHT22;30223;17.182;-96.766;2023-09-19T07:29:00;25.00;57.30
44517;DHT22;30223;17.182;-96.766;2023-09-19T07:31:29;24.90;57.20
44517;DHT22;30223;17.182;-96.766;2023-09-19T07:33:56;25.00;57.30
44517;DHT22;30223;17.182;-96.766;2023-09-19T07:36:23;24.90;57.30
44517;DHT22;30223;17.182;-96.766;2023-09-19T07:38:50;24.90;57.30
44517;DHT22;30223;17.182;-96.766;2023-09-19T07:41:16;24.90;57.40
44517;DHT22;30223;17.182;-96.766;2023-09-19T07:43:42;24.90;57.40
44517;DHT22;30223;17.182;-96.766;2023-09-19T07:46:09;24.90;57.50
44517;DHT22;30223;17.182;-96.766;2023-09-19T07:48:37;24.90;57.50
44517;DHT22;30223;17.182;-96.766;2023-09-19T07:51:04;24.90;57.60
44517;DHT22;30223;17.182;-96.766;2023-09-19T07:53:32;24.90;57.60
44517;DHT22;30223;17.182;-96.766;2023-09-19T07:56:03;24.90;57.70
44517;DHT22;30223;17.182;-96.766;2023-09-19T07:58:29;24.90;57.80
44517;DHT22;30223;17.182;-96.766;2023-09-19T08:01:02;24.80;57.70
44517;DHT22;30223;17.182;-96.766;2023-09-19T08:03:28;24.80;57.70
44517;DHT22;30223;17.182;-96.766;2023-09-19T08:05:55;24.80;57.80
44517;DHT22;30223;17.182;-96.766;2023-09-19T08:08:23;24.80;57.90
44517;DHT22;30223;17.182;-96.766;2023-09-19T08:10:53;24.80;57.90
44517;DHT22;30223;17.182;-96.766;2023-09-19T08:13:24;24.80;57.90
44517;DHT22;30223;17.182;-96.766;2023-09-19T08:15:51;24.80;57.90
44517;DHT22;30223;17.182;-96.766;2023-09-19T08:18:19;24.80;58.00
44517;DHT22;30223;17.182;-96.766;2023-09-19T08:20:51;24.70;58.00
44517;DHT22;30223;17.182;-96.766;2023-09-19T08:23:18;24.70;58.10
44517;DHT22;30223;17.182;-96.766;2023-09-19T08:25:45;24.70;58.10
44517;DHT22;30223;17.182;-96.766;2023-09-19T08:28:12;24.70;58.10
44517;DHT22;30223;17.182;-96.766;2023-09-19T08:30:39;24.70;58.20
44517;DHT22;30223;17.182;-96.766;2023-09-19T08:33:06;24.70;58.20
44517;DHT22;30223;17.182;-96.766;2023-09-19T08:35:33;24.70;58.20
44517;DHT22;30223;17.182;-96.766;2023-09-19T08:37:59;24.60;58.20
44517;DHT22;30223;17.182;-96.766;2023-09-19T08:40:30;24.60;58.30
44517;DHT22;30223;17.182;-96.766;2023-09-19T08:42:59;24.60;58.20
44517;DHT22;30223;17.182;-96.766;2023-09-19T08:45:26;24.60;58.40
44517;DHT22;30223;17.182;-96.766;2023-09-19T08:47:59;24.60;58.40
44517;DHT22;30223;17.182;-96.766;2023-09-19T08:50:26;24.60;58.40
44517;DHT22;30223;17.182;-96.766;2023-09-19T08:52:54;24.60;58.50
44517;DHT22;30223;17.182;-96.766;2023-09-19T08:55:23;24.60;58.50
44517;DHT22;30223;17.182;-96.766;2023-09-19T08:57:51;24.60;58.60
44517;DHT22;30223;17.182;-96.766;2023-09-19T09:00:18;24.50;58.60
44517;DHT22;30223;17.182;-96.766;2023-09-19T09:02:46;24.50;58.50
44517;DHT22;30223;17.182;-96.766;2023-09-19T09:05:13;24.50;58.60
44517;DHT22;30223;17.182;-96.766;2023-09-19T09:07:41;24.50;58.50
44517;DHT22;30223;17.182;-96.766;2023-09-19T09:10:08;24.50;59.20
44517;DHT22;30223;17.182;-96.766;2023-09-19T09:12:34;24.50;58.60
44517;DHT22;30223;17.182;-96.766;2023-09-19T09:15:04;24.50;58.70
44517;DHT22;30223;17.182;-96.766;2023-09-19T09:17:30;24.50;58.70
44517;DHT22;30223;17.182;-96.766;2023-09-19T09:19:57;24.50;58.80
44517;DHT22;30223;17.182;-96.766;2023-09-19T09:22:24;24.40;58.70
44517;DHT22;30223;17.182;-96.766;2023-09-19T09:24:53;24.40;58.80
44517;DHT22;30223;17.182;-96.766;2023-09-19T09:27:20;24.40;58.70
44517;DHT22;30223;17.182;-96.766;2023-09-19T09:29:50;24.40;58.80
44517;DHT22;30223;17.182;-96.766;2023-09-19T09:32:17;24.40;58.80
44517;DHT22;30223;17.182;-96.766;2023-09-19T09:34:46;24.40;58.80
44517;DHT22;30223;17.182;-96.766;2023-09-19T09:37:17;24.30;58.80
44517;DHT22;30223;17.182;-96.766;2023-09-19T09:39:49;24.40;58.80
44517;DHT22;30223;17.182;-96.766;2023-09-19T09:42:36;24.30;58.80
44517;DHT22;30223;17.182;-96.766;2023-09-19T09:47:46;24.30;58.90
44517;DHT22;30223;17.182;-96.766;2023-09-19T09:50:30;24.30;58.80
44517;DHT22;30223;17.182;-96.766;2023-09-19T09:53:24;24.30;58.90
44517;DHT22;30223;17.182;-96.766;2023-09-19T09:56:08;24.30;58.80
44517;DHT22;30223;17.182;-96.766;2023-09-19T10:01:14;24.20;58.80
44517;DHT22;30223;17.182;-96.766;2023-09-19T10:03:43;24.20;58.90
44517;DHT22;30223;17.182;-96.766;2023-09-19T10:06:11;24.20;58.90
44517;DHT22;30223;17.182;-96.766;2023-09-19T10:09:02;24.20;58.90
44517;DHT22;30223;17.182;-96.766;2023-09-19T10:11:39;24.20;58.90
44517;DHT22;30223;17.182;-96.766;2023-09-19T10:14:09;24.20;58.90
44517;DHT22;30223;17.182;-96.766;2023-09-19T10:16:45;24.20;58.90
44517;DHT22;30223;17.182;-96.766;2023-09-19T10:19:16;24.20;58.90
44517;DHT22;30223;17.182;-96.766;2023-09-19T10:21:48;24.20;58.90
44517;DHT22;30223;17.182;-96.766;2023-09-19T10:24:16;24.10;58.90
44517;DHT22;30223;17.182;-96.766;2023-09-19T10:26:43;24.10;58.90
44517;DHT22;30223;17.182;-96.766;2023-09-19T10:29:12;24.10;59.00
44517;DHT22;30223;17.182;-96.766;2023-09-19T10:31:39;24.10;59.00
44517;DHT22;30223;17.182;-96.766;2023-09-19T10:34:14;24.10;59.00
44517;DHT22;30223;17.182;-96.766;2023-09-19T10:36:40;24.10;59.00
44517;DHT22;30223;17.182;-96.766;2023-09-19T10:39:10;24.00;59.00
44517;DHT22;30223;17.182;-96.766;2023-09-19T10:41:37;24.00;59.10
44517;DHT22;30223;17.182;-96.766;2023-09-19T10:44:04;24.00;59.10
44517;DHT22;30223;17.182;-96.766;2023-09-19T10:46:31;24.00;59.10
44517;DHT22;30223;17.182;-96.766;2023-09-19T10:48:59;24.00;59.10
44517;DHT22;30223;17.182;-96.766;2023-09-19T10:51:26;24.00;59.10
44517;DHT22;30223;17.182;-96.766;2023-09-19T10:54:06;23.90;59.10
44517;DHT22;30223;17.182;-96.766;2023-09-19T10:56:42;23.90;59.10
44517;DHT22;30223;17.182;-96.766;2023-09-19T10:59:11;23.90;59.10
44517;DHT22;30223;17.182;-96.766;2023-09-19T11:01:48;23.90;59.10
44517;DHT22;30223;17.182;-96.766;2023-09-19T11:04:35;23.90;59.10
44517;DHT22;30223;17.182;-96.766;2023-09-19T11:07:06;23.90;59.20
44517;DHT22;30223;17.182;-96.766;2023-09-19T11:14:55;23.80;59.10
44517;DHT22;30223;17.182;-96.766;2023-09-19T11:30:47;23.70;59.30
44517;DHT22;30223;17.182;-96.766;2023-09-19T11:43:49;23.60;59.30
44517;DHT22;30223;17.182;-96.766;2023-09-19T11:46:16;23.60;59.30
44517;DHT22;30223;17.182;-96.766;2023-09-19T11:48:50;23.60;59.30
44517;DHT22;30223;17.182;-96.766;2023-09-19T11:51:18;23.50;59.30
44517;DHT22;30223;17.182;-96.766;2023-09-19T11:53:54;23.60;59.40
44517;DHT22;30223;17.182;-96.766;2023-09-19T11:56:24;23.50;59.30
44517;DHT22;30223;17.182;-96.766;2023-09-19T11:58:52;23.50;59.40
44517;DHT22;30223;17.182;-96.766;2023-09-19T12:01:25;23.50;59.40
44517;DHT22;30223;17.182;-96.766;2023-09-19T12:03:54;23.50;59.40
44517;DHT22;30223;17.182;-96.766;2023-09-19T12:06:22;23.40;59.40
44517;DHT22;30223;17.182;-96.766;2023-09-19T12:08:49;23.40;59.40
44517;DHT22;30223;17.182;-96.766;2023-09-19T12:11:16;23.40;59.40
44517;DHT22;30223;17.182;-96.766;2023-09-19T12:13:44;23.40;59.40
44517;DHT22;30223;17.182;-96.766;2023-09-19T12:16:14;23.40;59.40
44517;DHT22;30223;17.182;-96.766;2023-09-19T12:18:41;23.40;59.40
44517;DHT22;30223;17.182;-96.766;2023-09-19T12:21:24;23.40;59.40
44517;DHT22;30223;17.182;-96.766;2023-09-19T12:24:07;23.40;59.40
44517;DHT22;30223;17.182;-96.766;2023-09-19T12:29:10;23.40;59.50
44517;DHT22;30223;17.182;-96.766;2023-09-19T12:31:36;23.30;59.40
44517;DHT22;30223;17.182;-96.766;2023-09-19T12:34:05;23.30;59.40
44517;DHT22;30223;17.182;-96.766;2023-09-19T12:36:32;23.30;59.40
44517;DHT22;30223;17.182;-96.766;2023-09-19T12:39:00;23.30;59.40
44517;DHT22;30223;17.182;-96.766;2023-09-19T12:41:26;23.30;59.50
44517;DHT22;30223;17.182;-96.766;2023-09-19T12:43:53;23.30;59.40
44517;DHT22;30223;17.182;-96.766;2023-09-19T12:46:20;23.20;59.40
44517;DHT22;30223;17.182;-96.766;2023-09-19T12:51:35;23.20;59.40
44517;DHT22;30223;17.182;-96.766;2023-09-19T12:54:01;23.20;59.40
44517;DHT22;30223;17.182;-96.766;2023-09-19T12:56:28;23.20;59.40
44517;DHT22;30223;17.182;-96.766;2023-09-19T12:59:06;23.20;59.40
44517;DHT22;30223;17.182;-96.766;2023-09-19T13:01:35;23.20;59.40
44517;DHT22;30223;17.182;-96.766;2023-09-19T13:06:47;23.20;59.50
44517;DHT22;30223;17.182;-96.766;2023-09-19T13:09:15;23.10;59.40
44517;DHT22;30223;17.182;-96.766;2023-09-19T13:11:41;23.10;59.50
44517;DHT22;30223;17.182;-96.766;2023-09-19T13:16:54;23.10;59.60
44517;DHT22;30223;17.182;-96.766;2023-09-19T13:22:03;23.10;59.70
44517;DHT22;30223;17.182;-96.766;2023-09-19T13:24:29;23.00;59.70
44517;DHT22;30223;17.182;-96.766;2023-09-19T13:26:56;23.00;59.70
44517;DHT22;30223;17.182;-96.766;2023-09-19T13:29:22;23.00;59.70
44517;DHT22;30223;17.182;-96.766;2023-09-19T13:31:49;23.00;59.80
44517;DHT22;30223;17.182;-96.766;2023-09-19T13:34:16;23.00;59.80
44517;DHT22;30223;17.182;-96.766;2023-09-19T13:36:43;23.00;59.80
44517;DHT22;30223;17.182;-96.766;2023-09-19T13:39:09;23.00;59.80
44517;DHT22;30223;17.182;-96.766;2023-09-19T13:41:35;23.00;59.90
44517;DHT22;30223;17.182;-96.766;2023-09-19T13:44:04;23.00;59.90
44517;DHT22;30223;17.182;-96.766;2023-09-19T13:46:31;23.00;59.90
44517;DHT22;30223;17.182;-96.766;2023-09-19T13:49:00;23.00;59.90
44517;DHT22;30223;17.182;-96.766;2023-09-19T13:51:29;23.00;59.90
44517;DHT22;30223;17.182;-96.766;2023-09-19T13:53:56;23.00;59.90
44517;DHT22;30223;17.182;-96.766;2023-09-19T13:56:22;23.00;59.90
44517;DHT22;30223;17.182;-96.766;2023-09-19T13:58:48;22.90;59.80
44517;DHT22;30223;17.182;-96.766;2023-09-19T14:01:14;23.00;59.90
44517;DHT22;30223;17.182;-96.766;2023-09-19T14:03:41;23.00;59.80
44517;DHT22;30223;17.182;-96.766;2023-09-19T14:06:09;23.00;59.90
44517;DHT22;30223;17.182;-96.766;2023-09-19T14:08:36;23.00;59.80
44517;DHT22;30223;17.182;-96.766;2023-09-19T14:11:06;23.00;59.80
44517;DHT22;30223;17.182;-96.766;2023-09-19T14:13:32;23.00;59.80
44517;DHT22;30223;17.182;-96.766;2023-09-19T14:16:02;23.00;59.90
44517;DHT22;30223;17.182;-96.766;2023-09-19T14:18:30;23.00;59.90
44517;DHT22;30223;17.182;-96.766;2023-09-19T14:20:56;23.00;59.90
44517;DHT22;30223;17.182;-96.766;2023-09-19T14:23:23;23.00;59.90
44517;DHT22;30223;17.182;-96.766;2023-09-19T14:25:51;23.00;60.00
44517;DHT22;30223;17.182;-96.766;2023-09-19T14:28:19;23.00;60.00
44517;DHT22;30223;17.182;-96.766;2023-09-19T14:30:45;23.00;60.10
44517;DHT22;30223;17.182;-96.766;2023-09-19T14:33:12;23.00;60.10
44517;DHT22;30223;17.182;-96.766;2023-09-19T14:35:38;23.00;60.20
44517;DHT22;30223;17.182;-96.766;2023-09-19T14:38:04;23.00;60.20
44517;DHT22;30223;17.182;-96.766;2023-09-19T14:40:30;23.10;60.60
44517;DHT22;30223;17.182;-96.766;2023-09-19T14:42:56;23.20;61.00
44517;DHT22;30223;17.182;-96.766;2023-09-19T14:45:22;23.20;60.40
44517;DHT22;30223;17.182;-96.766;2023-09-19T14:47:51;23.20;60.40
44517;DHT22;30223;17.182;-96.766;2023-09-19T14:50:20;23.20;60.30
44517;DHT22;30223;17.182;-96.766;2023-09-19T14:52:47;23.10;60.20
44517;DHT22;30223;17.182;-96.766;2023-09-19T14:55:16;23.10;60.30
44517;DHT22;30223;17.182;-96.766;2023-09-19T14:57:42;23.20;60.20
44517;DHT22;30223;17.182;-96.766;2023-09-19T15:00:12;23.10;60.20
44517;DHT22;30223;17.182;-96.766;2023-09-19T15:02:39;23.10;60.20
44517;DHT22;30223;17.182;-96.766;2023-09-19T15:05:09;23.20;60.30
44517;DHT22;30223;17.182;-96.766;2023-09-19T15:07:36;23.20;60.30
44517;DHT22;30223;17.182;-96.766;2023-09-19T15:10:04;23.20;60.30
44517;DHT22;30223;17.182;-96.766;2023-09-19T15:12:32;23.20;60.30
44517;DHT22;30223;17.182;-96.766;2023-09-19T15:14:59;23.20;60.30
44517;DHT22;30223;17.182;-96.766;2023-09-19T15:17:25;23.20;60.20
44517;DHT22;30223;17.182;-96.766;2023-09-19T15:19:51;23.20;60.20
44517;DHT22;30223;17.182;-96.766;2023-09-19T15:22:19;23.20;60.20
44517;DHT22;30223;17.182;-96.766;2023-09-19T15:24:46;23.20;60.20
44517;DHT22;30223;17.182;-96.766;2023-09-19T15:27:12;23.20;60.20
44517;DHT22;30223;17.182;-96.766;2023-09-19T15:29:38;23.30;60.20
44517;DHT22;30223;17.182;-96.766;2023-09-19T15:32:04;23.20;60.20
44517;DHT22;30223;17.182;-96.766;2023-09-19T15:34:30;23.20;60.20
44517;DHT22;30223;17.182;-96.766;2023-09-19T15:36:57;23.30;60.30
44517;DHT22;30223;17.182;-96.766;2023-09-19T15:39:23;23.30;60.30
44517;DHT22;30223;17.182;-96.766;2023-09-19T15:41:49;23.30;60.40
44517;DHT22;30223;17.182;-96.766;2023-09-19T15:44:17;23.30;60.30
44517;DHT22;30223;17.182;-96.766;2023-09-19T15:46:44;23.30;60.30
44517;DHT22;30223;17.182;-96.766;2023-09-19T15:49:11;23.30;60.30
44517;DHT22;30223;17.182;-96.766;2023-09-19T15:51:37;23.30;60.30
44517;DHT22;30223;17.182;-96.766;2023-09-19T15:54:08;23.30;60.30
44517;DHT22;30223;17.182;-96.766;2023-09-19T15:56:35;23.40;60.40
44517;DHT22;30223;17.182;-96.766;2023-09-19T15:59:01;23.40;60.40
44517;DHT22;30223;17.182;-96.766;2023-09-19T16:01:28;23.40;60.40
44517;DHT22;30223;17.182;-96.766;2023-09-19T16:03:54;23.40;60.40
44517;DHT22;30223;17.182;-96.766;2023-09-19T16:06:27;23.40;60.40
44517;DHT22;30223;17.182;-96.766;2023-09-19T16:08:55;23.40;60.40
44517;DHT22;30223;17.182;-96.766;2023-09-19T16:11:22;23.40;60.40
44517;DHT22;30223;17.182;-96.766;2023-09-19T16:13:49;23.50;60.40
44517;DHT22;30223;17.182;-96.766;2023-09-19T16:16:17;23.50;60.40